• Join FlightAware (Why Join?)
  • Login
  • US Flag 
09:03PM EDT


 

Airport Tracker/Info


-or-


 

Live Flight TrackerFlight Track Log ✈ N777NC ✈ 10-Jul-2013 ✈ KSDF - KATL

Flight Track Log - Related Links

Times and Time Zones

All times are in EDT time to prevent confusion due to time zone crossing. See the N777NC flight status page for this flight to view local times or setup timezone preferences in your user account.

Time Position Orientation Groundspeed Altitude Reporting Facility
EDT Latitude Longitude Course Direction KTS MPH feet Rate Location/Type
03:53PM 38.0167 -85.7000 191° South 262 302 4,100  Level Louisville TRACON
03:54PM 37.9992 -86.0183 238° Southwest  Level FlightAware Approximate
03:55PM 37.9480 -86.1206 238° Southwest  Level FlightAware Approximate
03:55PM 37.9800 -85.8108 247° West 244 281 7,200  Level Indianapolis Center
03:56PM 37.8921 -86.2187 233° Southwest  Level FlightAware Approximate
03:56PM 37.9697 -85.8975 261° West 245 282 9,400  Level Indianapolis Center
03:57PM 37.8033 -86.2493 189° South  Level FlightAware Approximate
03:57PM 37.9536 -85.9942 258° West 278 320 10,300  Level Indianapolis Center
03:58PM 37.7042 -86.2740 191° South  Level FlightAware Approximate
03:58PM 37.9128 -86.0981 244° Southwest 323 372 11,500  Level Indianapolis Center
03:59PM 37.6051 -86.2988 191° South  Level FlightAware Approximate
03:59PM 37.8675 -86.2078 242° Southwest 344 396 13,500  Level Indianapolis Center
04:00PM 37.8231 -86.3192 243° Southwest 351 404 15,600 1,920 Climbing Indianapolis Center
04:01PM 37.7694 -86.4561 244° Southwest 362 417 17,500 1,560 Climbing Indianapolis Center
04:02PM 37.7186 -86.5781 242° Southwest 377 434 18,900 1,680 Climbing Indianapolis Center
04:03PM 37.6775 -86.7006 247° West 374 430 21,000 1,500 Climbing Indianapolis Center
04:04PM 37.6467 -86.8317 253° West 384 442 22,000 960 Climbing Indianapolis Center
04:05PM 37.6103 -86.9669 251° West 398 458 23,000 780 Climbing Indianapolis Center
04:06PM 37.5725 -87.1053 251° West 410 472 23,700 720 Climbing Indianapolis Center
04:07PM 37.4994 -87.2217 232° Southwest 437 503 24,500 780 Climbing Indianapolis Center
04:08PM 37.3853 -87.2928 206° Southwest 457 526 25,300 720 Climbing Indianapolis Center
04:09PM 37.2644 -87.3433 198° South 456 525 26,000 720 Climbing Indianapolis Center
04:10PM 37.1386 -87.3892 196° South 466 536 26,800 780 Climbing Indianapolis Center
04:11PM 37.0300 -87.3972 183° South 472 543 27,400 780 Climbing Memphis Center
04:12PM 36.8997 -87.3606 167° South 470 541 28,200 660 Climbing Memphis Center
04:13PM 36.7736 -87.3161 164° South 475 547 28,800 360 Climbing Memphis Center
04:14PM 36.6572 -87.2375 152° Southeast 475 547 29,000 60 Climbing Memphis Center
04:15PM 36.5614 -87.1611 147° Southeast 470 541 29,000  Level Memphis Center
04:16PM 36.4319 -87.1508 176° South 449 517 29,000  Level Memphis Center
04:17PM 36.2864 -87.1694 186° South 466 536 29,000  Level Memphis Center
04:18PM 36.1575 -87.1797 184° South 466 536 29,000 -60 Level Memphis Center
04:19PM 36.0431 -87.1147 155° Southeast 449 517 28,900 -660 Descending Memphis Center
04:20PM 35.9614 -87.0206 137° Southeast 439 505 27,700 -900 Descending Memphis Center
04:21PM 35.8689 -86.9142 137° Southeast 451 519 27,100 -360 Descending Memphis Center
04:22PM 35.7761 -86.8081 137° Southeast 451 519 27,000 -60 Descending Memphis Center
04:23PM 35.6836 -86.7047 138° Southeast 456 525 27,000  Level Memphis Center
04:25PM 35.4792 -86.4794 138° Southeast 458 527 27,000  Level Atlanta Center
04:26PM 35.3811 -86.3797 140° Southeast 458 527 27,000  Level Atlanta Center
04:27PM 35.2703 -86.2747 142° Southeast 458 527 27,000 -60 Level Atlanta Center
04:28PM 35.1903 -86.1964 141° Southeast 463 533 26,900 -900 Descending Atlanta Center
04:29PM 35.0817 -86.0844 140° Southeast 449 517 25,300 -1,500 Descending Atlanta Center
04:30PM 34.9914 -85.9936 140° Southeast 437 503 24,000 -660 Descending Atlanta Center
04:31PM 34.9214 -85.9208 140° Southeast 431 496 24,000  Level Atlanta Center
04:32PM 34.8144 -85.8172 141° Southeast 418 481 24,000  Level Atlanta Center
04:33PM 34.7325 -85.7194 136° Southeast 418 481 24,000  Level Atlanta Center
04:34PM 34.6586 -85.6297 135° Southeast 394 453 24,000  Level Atlanta Center
04:35PM 34.5844 -85.5425 136° Southeast 378 435 24,000 -600 Level Atlanta Center
04:36PM 34.5103 -85.4531 135° Southeast 372 428 22,900 -1,560 Descending Atlanta Center
04:37PM 34.4342 -85.3711 138° Southeast 372 428 20,900 -1,800 Descending Atlanta Center
04:38PM 34.3658 -85.3047 141° Southeast 360 414 19,300 -1,740 Descending Atlanta Center
04:39PM 34.2850 -85.2431 148° Southeast 347 399 17,500 -1,860 Descending Atlanta Center
04:40PM 34.2150 -85.1667 138° Southeast 339 390 15,600 -1,620 Descending Atlanta Center
04:41PM 34.1425 -85.0856 137° Southeast 333 383 14,300 -840 Descending Atlanta Center
04:42PM 34.0847 -85.0069 132° Southeast 322 371 14,000 -660 Descending Atlanta Center
04:43PM 34.0228 -84.9311 135° Southeast 317 365 13,000 -960 Descending Atlanta Center
04:44PM 33.9628 -84.8553 134° Southeast 312 359 12,100 -540 Descending Atlanta Center
04:45PM 33.9089 -84.7797 131° Southeast 312 359 12,000 -60 Descending Atlanta Center
04:46PM 33.8531 -84.6967 129° Southeast 312 359 12,000  Level Atlanta Center
04:47PM 33.8000 -84.6167 129° Southeast 271 312 12,000 -420 Level Atlanta TRACON
04:48PM 33.7500 -84.5333 126° Southeast 262 302 11,200 -1,260 Descending Atlanta TRACON
04:49PM 33.7500 -84.4500 90° East 259 298 9,500 -1,860 Descending Atlanta TRACON
04:50PM 33.7333 -84.3833 107° East 241 277 7,700 -2,040 Descending Atlanta TRACON
04:51PM 33.7333 -84.3000 90° East 240 276 5,500 -1,800 Descending Atlanta TRACON
04:52PM 33.7000 -84.2500 129° Southeast 230 265 4,200 -1,320 Descending Atlanta TRACON